Архив погоды в Шахунье

Метеограмма Шахунья
Среда, 21 Августа
Время местн. Темп Ветер Видим Явления Облачность нижн/средн/верх Атм. давл. Влжн Точка росы ВНГО R Сост. почвы Tg s
Напр Скр Прв ур.ст ур.м изм
21:00 +18.2° С,С-З 1 2 4 км - переменная облачность 752 768 +0.2 91% +16.7° - - - - -
18:00 +23.7° С,С-З 3 6 50 км - облачно с прояснениями 752 767 +0.2 73% +18.5° 1 км - - - -
15:00 +26.1° З 2 4 более 50 км - облачно с прояснениями 752 767 -0.2 63% +18.4° 1 км - - - -
12:00 +24.9° З 2 4 50 км - облачно с прояснениями 752 767 -0.3 61% +16.9° 1 км - - - -
09:00 +22.4° Ю-З 1 3 50 км - переменная облачность 752 767 +0.2 70% +16.7° более 2.5 км - - - -
06:00 +15.1° Ю 1 2 50 км - незначительная облачность 752 768 +0.5 94% +14.2° - - Влажная (без луж) - -
03:00 +13° Ю 1 2 4 км - ясно 751 767 -0.2 94% +12.1° более 2.5 км - - - -
00:00 +13.7° Ю 1 1 4 км - ясно 752 767 +0.3 94% +12.8° более 2.5 км - - - -
Вторник, 20 Августа
Время местн. Темп Ветер Видим Явления Облачность нижн/средн/верх Атм. давл. Влжн Точка росы ВНГО R Сост. почвы Tg s
Напр Скр Прв ур.ст ур.м изм
21:00 +15.1° штиль 0 0 4 км - переменная облачность 751 767 +0.5 93% +14° - - - - -
18:00 +21° С 2 6 более 50 км - незначительная облачность 751 766 -0.1 67% +14.7° 1.5 км 0 - - -
15:00 +22.6° С 2 3 50 км - переменная облачность 751 766 +0.1 66% +15.9° 1.5 км - - - -
12:00 +20.9° С-З 3 5 50 км - облачно с прояснениями 751 766 +0.6 75% +16.3° 1 км - - - -
09:00 +16.7° С-З 2 3 20 км - облачно 750 766 +0.8 94% +15.7° 300 м - - - -
06:00 +15.3° С-З 2 3 20 км - облачно 750 765 +0.8 94% +14.4° 600 м - Влажная (без луж) - -
03:00 +14.7° З 1 2 4 км - переменная облачность 749 764 +0.6 93% +13.6° - - - - -
00:00 +16° З 1 2 4 км - переменная облачность 748 764 +0.1 91% +14.6° - - - - -
Понедельник, 19 Августа
Время местн. Темп Ветер Видим Явления Облачность нижн/средн/верх Атм. давл. Влжн Точка росы ВНГО R Сост. почвы Tg s
Напр Скр Прв ур.ст ур.м изм
21:00 +16.9° Ю-З 2 3 4 км - облачно с прояснениями 748 763 +0.8 91% +15.5° 1 км - - - -
18:00 +22.3° З 2 3 50 км - переменная облачность 747 762 +0.7 74% +17.4° 1 км - - - -
15:00 +22.5° Ю,Ю-В 4 8 50 км небо без изменений {ливневые осадки} облачно 747 762 -1.1 77% +18.2° 1 км - - - -
12:00 +21.5° Ю-В 4 6 50 км небо без изменений {ливневые осадки} преимущественно облачно 748 763 -0.2 82% +18.3° - - - - -
09:00 +18.9° Ю-В 2 4 50 км небо без изменений {ливневые осадки} облачно 748 763 +0.4 95% +18.1° 1 км - - - -
06:00 +18° Ю 2 4 20 км слабый ливневый дождь облачно 747 763 +0.5 95% +17.2° 1 км - Влажная (без луж) - -
03:00 +17.3° Ю-В 2 3 4 км - преимущественно облачно 747 762 +0.2 94% +16.4° - - - - -
00:00 +18° В,Ю-В 2 3 4 км - преимущественно облачно 747 762 +0.1 95% +17.2° 600 м - - - -
Воскресенье, 18 Августа
Время местн. Темп Ветер Видим Явления Облачность нижн/средн/верх Атм. давл. Влжн Точка росы ВНГО R Сост. почвы Tg s
Напр Скр Прв ур.ст ур.м изм
21:00 +18.9° В 3 5 4 км - облачно 747 762 +0.2 93% +17.7° 200 м - - - -
18:00 +20° В 3 6 50 км - преимущественно облачно 747 762 -0.2 92% +18.7° 300 м - - - -